sensor_id;sensor_type;location;lat;lon;timestamp;P1;durP1;ratioP1;P2;durP2;ratioP2
20065;SDS011;10193;48.884;9.182;2024-02-28T00:01:59;8.95;;;8.05;;
20065;SDS011;10193;48.884;9.182;2024-02-28T00:04:27;9.35;;;8.32;;
20065;SDS011;10193;48.884;9.182;2024-02-28T00:06:54;9.55;;;8.52;;
20065;SDS011;10193;48.884;9.182;2024-02-28T00:09:20;9.45;;;8.45;;
20065;SDS011;10193;48.884;9.182;2024-02-28T00:11:47;9.88;;;8.88;;
20065;SDS011;10193;48.884;9.182;2024-02-28T00:14:14;10.45;;;8.27;;
20065;SDS011;10193;48.884;9.182;2024-02-28T00:16:40;8.55;;;7.63;;
20065;SDS011;10193;48.884;9.182;2024-02-28T00:19:07;8.93;;;7.97;;
20065;SDS011;10193;48.884;9.182;2024-02-28T00:21:37;9.90;;;8.70;;
20065;SDS011;10193;48.884;9.182;2024-02-28T00:24:04;10.10;;;8.98;;
20065;SDS011;10193;48.884;9.182;2024-02-28T00:26:32;9.90;;;8.75;;
20065;SDS011;10193;48.884;9.182;2024-02-28T00:28:58;10.35;;;9.25;;
20065;SDS011;10193;48.884;9.182;2024-02-28T00:31:25;9.82;;;8.82;;
20065;SDS011;10193;48.884;9.182;2024-02-28T00:33:52;11.63;;;8.93;;
20065;SDS011;10193;48.884;9.182;2024-02-28T00:36:19;10.57;;;9.15;;
20065;SDS011;10193;48.884;9.182;2024-02-28T00:38:47;9.80;;;8.65;;
20065;SDS011;10193;48.884;9.182;2024-02-28T00:41:13;10.52;;;8.98;;
20065;SDS011;10193;48.884;9.182;2024-02-28T00:43:40;10.10;;;8.70;;
20065;SDS011;10193;48.884;9.182;2024-02-28T00:46:06;9.63;;;8.52;;
20065;SDS011;10193;48.884;9.182;2024-02-28T00:48:36;10.07;;;8.90;;
20065;SDS011;10193;48.884;9.182;2024-02-28T00:51:03;10.10;;;8.75;;
20065;SDS011;10193;48.884;9.182;2024-02-28T00:53:30;11.07;;;9.23;;
20065;SDS011;10193;48.884;9.182;2024-02-28T00:55:58;10.35;;;8.98;;
20065;SDS011;10193;48.884;9.182;2024-02-28T00:58:25;10.68;;;9.38;;
20065;SDS011;10193;48.884;9.182;2024-02-28T01:00:54;10.52;;;9.27;;
20065;SDS011;10193;48.884;9.182;2024-02-28T01:03:21;10.43;;;9.13;;
20065;SDS011;10193;48.884;9.182;2024-02-28T01:05:48;10.05;;;9.05;;
20065;SDS011;10193;48.884;9.182;2024-02-28T01:08:15;9.55;;;8.57;;
20065;SDS011;10193;48.884;9.182;2024-02-28T01:10:42;10.40;;;8.88;;
20065;SDS011;10193;48.884;9.182;2024-02-28T01:13:10;10.18;;;9.18;;
20065;SDS011;10193;48.884;9.182;2024-02-28T01:15:37;10.10;;;9.02;;
20065;SDS011;10193;48.884;9.182;2024-02-28T01:18:05;10.18;;;8.95;;
20065;SDS011;10193;48.884;9.182;2024-02-28T01:20:31;10.25;;;9.02;;
20065;SDS011;10193;48.884;9.182;2024-02-28T01:22:58;10.60;;;9.38;;
20065;SDS011;10193;48.884;9.182;2024-02-28T01:25:24;11.98;;;10.02;;
20065;SDS011;10193;48.884;9.182;2024-02-28T01:27:50;10.60;;;9.50;;
20065;SDS011;10193;48.884;9.182;2024-02-28T01:30:18;10.75;;;9.55;;
20065;SDS011;10193;48.884;9.182;2024-02-28T01:32:45;11.02;;;9.45;;
20065;SDS011;10193;48.884;9.182;2024-02-28T01:35:12;10.75;;;8.80;;
20065;SDS011;10193;48.884;9.182;2024-02-28T01:37:38;10.38;;;9.38;;
20065;SDS011;10193;48.884;9.182;2024-02-28T01:40:05;11.48;;;9.27;;
20065;SDS011;10193;48.884;9.182;2024-02-28T01:42:33;10.43;;;8.98;;
20065;SDS011;10193;48.884;9.182;2024-02-28T01:45:00;9.65;;;8.65;;
20065;SDS011;10193;48.884;9.182;2024-02-28T01:47:28;10.40;;;9.30;;
20065;SDS011;10193;48.884;9.182;2024-02-28T01:49:55;10.30;;;9.20;;
20065;SDS011;10193;48.884;9.182;2024-02-28T01:52:22;10.23;;;9.23;;
20065;SDS011;10193;48.884;9.182;2024-02-28T01:54:49;9.65;;;8.63;;
20065;SDS011;10193;48.884;9.182;2024-02-28T01:57:16;9.70;;;8.52;;
20065;SDS011;10193;48.884;9.182;2024-02-28T01:59:43;9.32;;;8.32;;
20065;SDS011;10193;48.884;9.182;2024-02-28T02:02:11;9.40;;;8.50;;
20065;SDS011;10193;48.884;9.182;2024-02-28T02:04:39;8.68;;;7.78;;
20065;SDS011;10193;48.884;9.182;2024-02-28T02:07:06;9.40;;;7.88;;
20065;SDS011;10193;48.884;9.182;2024-02-28T02:09:34;8.63;;;7.30;;
20065;SDS011;10193;48.884;9.182;2024-02-28T02:12:01;8.70;;;7.80;;
20065;SDS011;10193;48.884;9.182;2024-02-28T02:14:27;8.98;;;8.02;;
20065;SDS011;10193;48.884;9.182;2024-02-28T02:16:54;9.02;;;8.00;;
20065;SDS011;10193;48.884;9.182;2024-02-28T02:19:21;8.70;;;7.80;;
20065;SDS011;10193;48.884;9.182;2024-02-28T02:21:52;9.57;;;8.57;;
20065;SDS011;10193;48.884;9.182;2024-02-28T02:24:21;9.65;;;8.48;;
20065;SDS011;10193;48.884;9.182;2024-02-28T02:26:47;8.75;;;7.85;;
20065;SDS011;10193;48.884;9.182;2024-02-28T02:29:17;9.00;;;8.10;;
20065;SDS011;10193;48.884;9.182;2024-02-28T02:31:43;8.88;;;7.97;;
20065;SDS011;10193;48.884;9.182;2024-02-28T02:34:10;10.18;;;8.75;;
20065;SDS011;10193;48.884;9.182;2024-02-28T02:36:37;9.00;;;8.10;;
20065;SDS011;10193;48.884;9.182;2024-02-28T02:39:04;9.80;;;8.63;;
20065;SDS011;10193;48.884;9.182;2024-02-28T02:41:34;9.50;;;8.50;;
20065;SDS011;10193;48.884;9.182;2024-02-28T02:44:00;9.45;;;8.45;;
20065;SDS011;10193;48.884;9.182;2024-02-28T02:46:27;10.30;;;8.65;;
20065;SDS011;10193;48.884;9.182;2024-02-28T02:48:54;9.38;;;8.35;;
20065;SDS011;10193;48.884;9.182;2024-02-28T02:51:21;9.60;;;8.60;;
20065;SDS011;10193;48.884;9.182;2024-02-28T02:53:47;10.43;;;9.32;;
20065;SDS011;10193;48.884;9.182;2024-02-28T02:56:14;8.82;;;7.90;;
20065;SDS011;10193;48.884;9.182;2024-02-28T02:58:42;8.82;;;7.93;;
20065;SDS011;10193;48.884;9.182;2024-02-28T03:01:09;9.25;;;8.35;;
20065;SDS011;10193;48.884;9.182;2024-02-28T03:03:35;10.23;;;8.38;;
20065;SDS011;10193;48.884;9.182;2024-02-28T03:06:03;9.20;;;7.75;;
20065;SDS011;10193;48.884;9.182;2024-02-28T03:08:30;9.23;;;8.23;;
20065;SDS011;10193;48.884;9.182;2024-02-28T03:10:56;9.80;;;8.48;;
20065;SDS011;10193;48.884;9.182;2024-02-28T03:13:25;10.75;;;8.73;;
20065;SDS011;10193;48.884;9.182;2024-02-28T03:15:53;10.23;;;8.35;;
20065;SDS011;10193;48.884;9.182;2024-02-28T03:18:20;9.77;;;8.57;;
20065;SDS011;10193;48.884;9.182;2024-02-28T03:20:46;9.00;;;8.10;;
20065;SDS011;10193;48.884;9.182;2024-02-28T03:23:13;9.68;;;8.68;;
20065;SDS011;10193;48.884;9.182;2024-02-28T03:25:39;9.55;;;8.18;;
20065;SDS011;10193;48.884;9.182;2024-02-28T03:28:06;9.43;;;8.45;;
20065;SDS011;10193;48.884;9.182;2024-02-28T03:30:33;9.10;;;8.18;;
20065;SDS011;10193;48.884;9.182;2024-02-28T03:33:01;9.82;;;8.77;;
20065;SDS011;10193;48.884;9.182;2024-02-28T03:35:28;10.25;;;8.73;;
20065;SDS011;10193;48.884;9.182;2024-02-28T03:37:54;10.27;;;8.70;;
20065;SDS011;10193;48.884;9.182;2024-02-28T03:40:21;9.07;;;8.18;;
20065;SDS011;10193;48.884;9.182;2024-02-28T03:42:48;9.60;;;8.65;;
20065;SDS011;10193;48.884;9.182;2024-02-28T03:45:14;9.45;;;8.15;;
20065;SDS011;10193;48.884;9.182;2024-02-28T03:47:41;10.70;;;8.57;;
20065;SDS011;10193;48.884;9.182;2024-02-28T03:50:09;9.27;;;8.27;;
20065;SDS011;10193;48.884;9.182;2024-02-28T03:52:36;9.15;;;8.00;;
20065;SDS011;10193;48.884;9.182;2024-02-28T03:55:03;8.82;;;7.93;;
20065;SDS011;10193;48.884;9.182;2024-02-28T03:57:30;9.32;;;8.40;;
20065;SDS011;10193;48.884;9.182;2024-02-28T03:59:56;8.80;;;7.88;;
20065;SDS011;10193;48.884;9.182;2024-02-28T04:02:23;8.77;;;7.72;;
20065;SDS011;10193;48.884;9.182;2024-02-28T04:04:50;8.80;;;7.90;;
20065;SDS011;10193;48.884;9.182;2024-02-28T04:07:18;8.75;;;7.85;;
20065;SDS011;10193;48.884;9.182;2024-02-28T04:09:44;8.75;;;7.85;;
20065;SDS011;10193;48.884;9.182;2024-02-28T04:12:11;8.55;;;7.68;;
20065;SDS011;10193;48.884;9.182;2024-02-28T04:14:38;8.32;;;7.50;;
20065;SDS011;10193;48.884;9.182;2024-02-28T04:17:04;9.05;;;7.50;;
20065;SDS011;10193;48.884;9.182;2024-02-28T04:19:32;8.48;;;7.63;;
20065;SDS011;10193;48.884;9.182;2024-02-28T04:22:01;8.93;;;8.02;;
20065;SDS011;10193;48.884;9.182;2024-02-28T04:24:29;9.00;;;8.00;;
20065;SDS011;10193;48.884;9.182;2024-02-28T04:26:55;8.77;;;7.88;;
20065;SDS011;10193;48.884;9.182;2024-02-28T04:29:23;9.48;;;8.38;;
20065;SDS011;10193;48.884;9.182;2024-02-28T04:31:49;8.80;;;7.57;;
20065;SDS011;10193;48.884;9.182;2024-02-28T04:34:15;9.38;;;8.38;;
20065;SDS011;10193;48.884;9.182;2024-02-28T04:36:42;10.48;;;8.32;;
20065;SDS011;10193;48.884;9.182;2024-02-28T04:39:09;9.38;;;8.38;;
20065;SDS011;10193;48.884;9.182;2024-02-28T04:41:37;10.07;;;7.78;;
20065;SDS011;10193;48.884;9.182;2024-02-28T04:44:03;8.20;;;7.40;;
20065;SDS011;10193;48.884;9.182;2024-02-28T04:46:30;9.38;;;7.93;;
20065;SDS011;10193;48.884;9.182;2024-02-28T04:48:57;8.70;;;7.80;;
20065;SDS011;10193;48.884;9.182;2024-02-28T04:51:23;9.00;;;8.05;;
20065;SDS011;10193;48.884;9.182;2024-02-28T04:53:50;8.48;;;7.63;;
20065;SDS011;10193;48.884;9.182;2024-02-28T04:56:16;8.43;;;7.63;;
20065;SDS011;10193;48.884;9.182;2024-02-28T04:58:44;8.38;;;7.30;;
20065;SDS011;10193;48.884;9.182;2024-02-28T05:01:11;8.82;;;7.80;;
20065;SDS011;10193;48.884;9.182;2024-02-28T05:03:38;8.80;;;7.70;;
20065;SDS011;10193;48.884;9.182;2024-02-28T05:06:05;8.30;;;7.18;;
20065;SDS011;10193;48.884;9.182;2024-02-28T05:08:31;8.60;;;7.70;;
20065;SDS011;10193;48.884;9.182;2024-02-28T05:10:58;8.90;;;8.02;;
20065;SDS011;10193;48.884;9.182;2024-02-28T05:13:25;9.25;;;7.60;;
20065;SDS011;10193;48.884;9.182;2024-02-28T05:15:53;8.73;;;7.78;;
20065;SDS011;10193;48.884;9.182;2024-02-28T05:18:19;9.15;;;7.88;;
20065;SDS011;10193;48.884;9.182;2024-02-28T05:20:46;9.35;;;8.05;;
20065;SDS011;10193;48.884;9.182;2024-02-28T05:23:13;8.45;;;7.55;;
20065;SDS011;10193;48.884;9.182;2024-02-28T05:25:40;8.57;;;7.68;;
20065;SDS011;10193;48.884;9.182;2024-02-28T05:28:07;9.57;;;8.50;;
20065;SDS011;10193;48.884;9.182;2024-02-28T05:30:33;9.20;;;8.30;;
20065;SDS011;10193;48.884;9.182;2024-02-28T05:33:01;8.57;;;7.68;;
20065;SDS011;10193;48.884;9.182;2024-02-28T05:35:28;8.48;;;7.57;;
20065;SDS011;10193;48.884;9.182;2024-02-28T05:37:55;9.60;;;8.60;;
20065;SDS011;10193;48.884;9.182;2024-02-28T05:40:21;10.13;;;8.13;;
20065;SDS011;10193;48.884;9.182;2024-02-28T05:42:49;8.07;;;7.28;;
20065;SDS011;10193;48.884;9.182;2024-02-28T05:45:16;9.00;;;8.10;;
20065;SDS011;10193;48.884;9.182;2024-02-28T05:47:42;9.40;;;8.38;;
20065;SDS011;10193;48.884;9.182;2024-02-28T05:50:10;9.15;;;8.15;;
20065;SDS011;10193;48.884;9.182;2024-02-28T05:52:38;9.70;;;8.70;;
20065;SDS011;10193;48.884;9.182;2024-02-28T05:55:07;10.00;;;8.98;;
20065;SDS011;10193;48.884;9.182;2024-02-28T05:57:34;9.27;;;8.38;;
20065;SDS011;10193;48.884;9.182;2024-02-28T06:00:00;9.40;;;8.43;;
20065;SDS011;10193;48.884;9.182;2024-02-28T06:02:33;9.13;;;8.23;;
20065;SDS011;10193;48.884;9.182;2024-02-28T06:05:00;9.80;;;8.27;;
20065;SDS011;10193;48.884;9.182;2024-02-28T06:07:28;10.07;;;8.63;;
20065;SDS011;10193;48.884;9.182;2024-02-28T06:09:55;10.30;;;9.20;;
20065;SDS011;10193;48.884;9.182;2024-02-28T06:12:22;10.65;;;8.93;;
20065;SDS011;10193;48.884;9.182;2024-02-28T06:14:49;10.02;;;8.95;;
20065;SDS011;10193;48.884;9.182;2024-02-28T06:17:15;9.35;;;8.23;;
20065;SDS011;10193;48.884;9.182;2024-02-28T06:19:42;9.27;;;8.38;;
20065;SDS011;10193;48.884;9.182;2024-02-28T06:22:09;9.82;;;8.40;;
20065;SDS011;10193;48.884;9.182;2024-02-28T06:24:37;9.40;;;8.40;;
20065;SDS011;10193;48.884;9.182;2024-02-28T06:27:04;9.38;;;8.40;;
20065;SDS011;10193;48.884;9.182;2024-02-28T06:29:30;9.80;;;8.80;;
20065;SDS011;10193;48.884;9.182;2024-02-28T06:32:01;8.70;;;7.55;;
20065;SDS011;10193;48.884;9.182;2024-02-28T06:34:27;9.73;;;8.23;;
20065;SDS011;10193;48.884;9.182;2024-02-28T06:36:54;9.68;;;8.57;;
20065;SDS011;10193;48.884;9.182;2024-02-28T06:39:21;9.95;;;8.70;;
20065;SDS011;10193;48.884;9.182;2024-02-28T06:41:49;9.43;;;8.48;;
20065;SDS011;10193;48.884;9.182;2024-02-28T06:44:17;9.32;;;8.32;;
20065;SDS011;10193;48.884;9.182;2024-02-28T06:46:44;10.57;;;8.95;;
20065;SDS011;10193;48.884;9.182;2024-02-28T06:49:11;9.38;;;8.40;;
20065;SDS011;10193;48.884;9.182;2024-02-28T06:51:37;9.52;;;8.52;;
20065;SDS011;10193;48.884;9.182;2024-02-28T06:54:04;9.00;;;8.10;;
20065;SDS011;10193;48.884;9.182;2024-02-28T06:56:31;9.40;;;8.40;;
20065;SDS011;10193;48.884;9.182;2024-02-28T06:58:59;9.63;;;8.63;;
20065;SDS011;10193;48.884;9.182;2024-02-28T07:01:25;9.60;;;8.60;;
20065;SDS011;10193;48.884;9.182;2024-02-28T07:03:52;9.32;;;8.30;;
20065;SDS011;10193;48.884;9.182;2024-02-28T07:06:19;10.48;;;8.85;;
20065;SDS011;10193;48.884;9.182;2024-02-28T07:08:45;9.38;;;8.43;;
20065;SDS011;10193;48.884;9.182;2024-02-28T07:11:13;9.82;;;8.82;;
20065;SDS011;10193;48.884;9.182;2024-02-28T07:13:40;9.65;;;8.65;;
20065;SDS011;10193;48.884;9.182;2024-02-28T07:16:08;10.13;;;8.73;;
20065;SDS011;10193;48.884;9.182;2024-02-28T07:18:35;10.25;;;9.15;;
20065;SDS011;10193;48.884;9.182;2024-02-28T07:21:02;9.48;;;8.48;;
20065;SDS011;10193;48.884;9.182;2024-02-28T07:23:31;9.40;;;8.43;;
20065;SDS011;10193;48.884;9.182;2024-02-28T07:25:58;10.32;;;9.23;;
20065;SDS011;10193;48.884;9.182;2024-02-28T07:28:25;10.95;;;9.40;;
20065;SDS011;10193;48.884;9.182;2024-02-28T07:30:51;10.05;;;9.00;;
20065;SDS011;10193;48.884;9.182;2024-02-28T07:33:19;10.43;;;9.32;;
20065;SDS011;10193;48.884;9.182;2024-02-28T07:35:46;10.25;;;8.95;;
20065;SDS011;10193;48.884;9.182;2024-02-28T07:38:13;11.38;;;9.18;;
20065;SDS011;10193;48.884;9.182;2024-02-28T07:40:42;10.45;;;8.93;;
20065;SDS011;10193;48.884;9.182;2024-02-28T07:43:09;10.77;;;9.30;;
20065;SDS011;10193;48.884;9.182;2024-02-28T07:45:35;10.43;;;8.80;;
20065;SDS011;10193;48.884;9.182;2024-02-28T07:48:02;10.10;;;9.10;;
20065;SDS011;10193;48.884;9.182;2024-02-28T07:50:31;9.88;;;8.77;;
20065;SDS011;10193;48.884;9.182;2024-02-28T07:52:57;11.27;;;8.98;;
20065;SDS011;10193;48.884;9.182;2024-02-28T07:55:24;9.77;;;8.77;;
20065;SDS011;10193;48.884;9.182;2024-02-28T07:57:51;9.88;;;8.88;;
20065;SDS011;10193;48.884;9.182;2024-02-28T08:00:18;10.85;;;9.40;;
20065;SDS011;10193;48.884;9.182;2024-02-28T08:02:45;10.40;;;9.30;;
20065;SDS011;10193;48.884;9.182;2024-02-28T08:05:12;10.70;;;9.35;;
20065;SDS011;10193;48.884;9.182;2024-02-28T08:07:40;10.48;;;9.38;;
20065;SDS011;10193;48.884;9.182;2024-02-28T08:10:08;10.70;;;9.20;;
20065;SDS011;10193;48.884;9.182;2024-02-28T08:12:35;9.82;;;8.82;;
20065;SDS011;10193;48.884;9.182;2024-02-28T08:15:02;11.00;;;9.82;;
20065;SDS011;10193;48.884;9.182;2024-02-28T08:17:30;10.88;;;9.77;;
20065;SDS011;10193;48.884;9.182;2024-02-28T08:19:57;10.52;;;9.15;;
20065;SDS011;10193;48.884;9.182;2024-02-28T08:22:23;10.60;;;9.50;;
20065;SDS011;10193;48.884;9.182;2024-02-28T08:24:52;10.57;;;9.45;;
20065;SDS011;10193;48.884;9.182;2024-02-28T08:27:18;11.07;;;9.38;;
20065;SDS011;10193;48.884;9.182;2024-02-28T08:29:45;11.98;;;9.25;;
20065;SDS011;10193;48.884;9.182;2024-02-28T08:32:12;11.05;;;9.85;;
20065;SDS011;10193;48.884;9.182;2024-02-28T08:34:43;11.45;;;9.85;;
20065;SDS011;10193;48.884;9.182;2024-02-28T08:37:10;10.98;;;9.50;;
20065;SDS011;10193;48.884;9.182;2024-02-28T08:39:36;10.90;;;9.80;;
20065;SDS011;10193;48.884;9.182;2024-02-28T08:42:05;11.70;;;10.15;;
20065;SDS011;10193;48.884;9.182;2024-02-28T08:44:31;10.35;;;9.30;;
20065;SDS011;10193;48.884;9.182;2024-02-28T08:46:58;11.23;;;10.02;;
20065;SDS011;10193;48.884;9.182;2024-02-28T08:49:25;10.77;;;9.65;;
20065;SDS011;10193;48.884;9.182;2024-02-28T08:51:52;11.10;;;9.98;;
20065;SDS011;10193;48.884;9.182;2024-02-28T08:54:21;10.30;;;9.23;;
20065;SDS011;10193;48.884;9.182;2024-02-28T08:56:48;10.93;;;9.20;;
20065;SDS011;10193;48.884;9.182;2024-02-28T08:59:16;10.40;;;9.30;;
20065;SDS011;10193;48.884;9.182;2024-02-28T09:01:42;12.38;;;10.05;;
20065;SDS011;10193;48.884;9.182;2024-02-28T09:04:09;10.60;;;9.50;;
20065;SDS011;10193;48.884;9.182;2024-02-28T09:06:36;10.57;;;9.48;;
20065;SDS011;10193;48.884;9.182;2024-02-28T09:09:02;10.85;;;9.70;;
20065;SDS011;10193;48.884;9.182;2024-02-28T09:11:29;10.60;;;9.50;;
20065;SDS011;10193;48.884;9.182;2024-02-28T09:13:56;10.30;;;9.20;;
20065;SDS011;10193;48.884;9.182;2024-02-28T09:16:24;10.40;;;9.32;;
20065;SDS011;10193;48.884;9.182;2024-02-28T09:18:50;10.82;;;9.73;;
20065;SDS011;10193;48.884;9.182;2024-02-28T09:21:17;10.38;;;9.23;;
20065;SDS011;10193;48.884;9.182;2024-02-28T09:23:44;11.65;;;9.32;;
20065;SDS011;10193;48.884;9.182;2024-02-28T09:26:10;11.05;;;9.57;;
20065;SDS011;10193;48.884;9.182;2024-02-28T09:28:37;10.10;;;9.10;;
20065;SDS011;10193;48.884;9.182;2024-02-28T09:31:04;10.73;;;9.63;;
20065;SDS011;10193;48.884;9.182;2024-02-28T09:33:32;10.40;;;9.27;;
20065;SDS011;10193;48.884;9.182;2024-02-28T09:36:01;11.07;;;9.88;;
20065;SDS011;10193;48.884;9.182;2024-02-28T09:38:28;10.25;;;9.15;;
20065;SDS011;10193;48.884;9.182;2024-02-28T09:40:57;11.15;;;9.68;;
20065;SDS011;10193;48.884;9.182;2024-02-28T09:43:24;9.98;;;8.98;;
20065;SDS011;10193;48.884;9.182;2024-02-28T09:45:56;10.18;;;9.15;;
20065;SDS011;10193;48.884;9.182;2024-02-28T09:48:29;10.00;;;8.90;;
20065;SDS011;10193;48.884;9.182;2024-02-28T09:50:57;11.00;;;9.55;;
20065;SDS011;10193;48.884;9.182;2024-02-28T09:53:25;10.98;;;9.35;;
20065;SDS011;10193;48.884;9.182;2024-02-28T09:55:52;11.02;;;9.80;;
20065;SDS011;10193;48.884;9.182;2024-02-28T09:58:19;10.35;;;9.25;;
20065;SDS011;10193;48.884;9.182;2024-02-28T10:00:47;11.30;;;9.52;;
20065;SDS011;10193;48.884;9.182;2024-02-28T10:03:16;11.40;;;9.73;;
20065;SDS011;10193;48.884;9.182;2024-02-28T10:05:44;10.07;;;8.75;;
20065;SDS011;10193;48.884;9.182;2024-02-28T10:08:12;9.73;;;8.73;;
20065;SDS011;10193;48.884;9.182;2024-02-28T10:10:44;10.45;;;9.35;;
20065;SDS011;10193;48.884;9.182;2024-02-28T10:13:11;11.05;;;9.15;;
20065;SDS011;10193;48.884;9.182;2024-02-28T10:15:38;10.85;;;9.15;;
20065;SDS011;10193;48.884;9.182;2024-02-28T10:18:05;10.63;;;9.15;;
20065;SDS011;10193;48.884;9.182;2024-02-28T10:20:32;10.07;;;9.00;;
20065;SDS011;10193;48.884;9.182;2024-02-28T10:22:58;10.50;;;9.30;;
20065;SDS011;10193;48.884;9.182;2024-02-28T10:25:26;10.15;;;9.07;;
20065;SDS011;10193;48.884;9.182;2024-02-28T10:27:54;10.60;;;9.45;;
20065;SDS011;10193;48.884;9.182;2024-02-28T10:30:25;10.65;;;9.55;;
20065;SDS011;10193;48.884;9.182;2024-02-28T10:32:52;10.65;;;9.55;;
20065;SDS011;10193;48.884;9.182;2024-02-28T10:35:19;10.48;;;9.25;;
20065;SDS011;10193;48.884;9.182;2024-02-28T10:37:51;10.40;;;9.30;;
20065;SDS011;10193;48.884;9.182;2024-02-28T10:40:18;10.85;;;9.18;;
20065;SDS011;10193;48.884;9.182;2024-02-28T10:42:47;10.45;;;9.35;;
20065;SDS011;10193;48.884;9.182;2024-02-28T10:45:16;10.20;;;9.10;;
20065;SDS011;10193;48.884;9.182;2024-02-28T10:47:43;11.75;;;10.00;;
20065;SDS011;10193;48.884;9.182;2024-02-28T10:50:12;11.77;;;9.60;;
20065;SDS011;10193;48.884;9.182;2024-02-28T10:52:42;11.57;;;9.77;;
20065;SDS011;10193;48.884;9.182;2024-02-28T10:55:11;10.73;;;8.93;;
20065;SDS011;10193;48.884;9.182;2024-02-28T10:57:39;10.50;;;9.02;;
20065;SDS011;10193;48.884;9.182;2024-02-28T11:00:10;10.93;;;9.27;;
20065;SDS011;10193;48.884;9.182;2024-02-28T11:02:38;10.30;;;9.00;;
20065;SDS011;10193;48.884;9.182;2024-02-28T11:05:05;10.65;;;9.55;;
20065;SDS011;10193;48.884;9.182;2024-02-28T11:07:32;10.77;;;9.57;;
20065;SDS011;10193;48.884;9.182;2024-02-28T11:10:03;10.48;;;9.27;;
20065;SDS011;10193;48.884;9.182;2024-02-28T11:12:31;10.15;;;9.05;;
20065;SDS011;10193;48.884;9.182;2024-02-28T11:14:58;10.45;;;9.35;;
20065;SDS011;10193;48.884;9.182;2024-02-28T11:17:28;13.52;;;10.23;;
20065;SDS011;10193;48.884;9.182;2024-02-28T11:19:56;12.35;;;9.25;;
20065;SDS011;10193;48.884;9.182;2024-02-28T11:22:23;11.25;;;9.45;;
20065;SDS011;10193;48.884;9.182;2024-02-28T11:24:53;11.60;;;9.43;;
20065;SDS011;10193;48.884;9.182;2024-02-28T11:27:20;11.32;;;9.45;;
20065;SDS011;10193;48.884;9.182;2024-02-28T11:29:47;10.68;;;9.57;;
20065;SDS011;10193;48.884;9.182;2024-02-28T11:32:14;10.27;;;9.15;;
20065;SDS011;10193;48.884;9.182;2024-02-28T11:34:42;11.48;;;9.95;;
20065;SDS011;10193;48.884;9.182;2024-02-28T11:37:10;10.48;;;9.15;;
20065;SDS011;10193;48.884;9.182;2024-02-28T11:39:37;10.80;;;9.45;;
20065;SDS011;10193;48.884;9.182;2024-02-28T11:42:10;12.98;;;10.27;;
20065;SDS011;10193;48.884;9.182;2024-02-28T11:44:39;11.50;;;9.85;;
20065;SDS011;10193;48.884;9.182;2024-02-28T11:47:08;11.68;;;9.90;;
20065;SDS011;10193;48.884;9.182;2024-02-28T11:49:35;11.02;;;9.82;;
20065;SDS011;10193;48.884;9.182;2024-02-28T11:52:03;11.00;;;9.85;;
20065;SDS011;10193;48.884;9.182;2024-02-28T11:54:30;10.52;;;9.40;;
20065;SDS011;10193;48.884;9.182;2024-02-28T11:56:57;11.43;;;9.85;;
20065;SDS011;10193;48.884;9.182;2024-02-28T11:59:23;10.75;;;9.35;;
20065;SDS011;10193;48.884;9.182;2024-02-28T12:01:51;11.93;;;9.55;;
20065;SDS011;10193;48.884;9.182;2024-02-28T12:04:18;10.85;;;9.38;;
20065;SDS011;10193;48.884;9.182;2024-02-28T12:06:44;11.77;;;9.32;;
20065;SDS011;10193;48.884;9.182;2024-02-28T12:09:12;11.23;;;9.23;;
20065;SDS011;10193;48.884;9.182;2024-02-28T12:11:40;10.82;;;9.45;;
20065;SDS011;10193;48.884;9.182;2024-02-28T12:14:07;10.60;;;9.50;;
20065;SDS011;10193;48.884;9.182;2024-02-28T12:16:35;11.65;;;9.18;;
20065;SDS011;10193;48.884;9.182;2024-02-28T12:19:02;10.70;;;9.60;;
20065;SDS011;10193;48.884;9.182;2024-02-28T12:21:30;11.85;;;9.05;;
20065;SDS011;10193;48.884;9.182;2024-02-28T12:23:56;10.27;;;9.23;;
20065;SDS011;10193;48.884;9.182;2024-02-28T12:26:26;11.43;;;9.82;;
20065;SDS011;10193;48.884;9.182;2024-02-28T12:28:53;10.63;;;9.32;;
20065;SDS011;10193;48.884;9.182;2024-02-28T12:31:20;10.50;;;8.85;;
20065;SDS011;10193;48.884;9.182;2024-02-28T12:33:47;10.30;;;8.50;;
20065;SDS011;10193;48.884;9.182;2024-02-28T12:36:14;9.50;;;8.43;;
20065;SDS011;10193;48.884;9.182;2024-02-28T12:38:40;12.07;;;9.20;;
20065;SDS011;10193;48.884;9.182;2024-02-28T12:41:07;10.40;;;9.05;;
20065;SDS011;10193;48.884;9.182;2024-02-28T12:43:35;10.85;;;9.15;;
20065;SDS011;10193;48.884;9.182;2024-02-28T12:46:02;9.85;;;8.85;;
20065;SDS011;10193;48.884;9.182;2024-02-28T12:48:29;10.35;;;9.07;;
20065;SDS011;10193;48.884;9.182;2024-02-28T12:50:56;13.15;;;9.70;;
20065;SDS011;10193;48.884;9.182;2024-02-28T12:53:23;10.00;;;8.40;;
20065;SDS011;10193;48.884;9.182;2024-02-28T12:55:49;9.43;;;8.40;;
20065;SDS011;10193;48.884;9.182;2024-02-28T12:58:16;10.70;;;8.98;;
20065;SDS011;10193;48.884;9.182;2024-02-28T13:00:44;9.98;;;8.93;;
20065;SDS011;10193;48.884;9.182;2024-02-28T13:03:11;9.85;;;8.68;;
20065;SDS011;10193;48.884;9.182;2024-02-28T13:05:37;10.38;;;9.15;;
20065;SDS011;10193;48.884;9.182;2024-02-28T13:08:04;9.35;;;8.32;;
20065;SDS011;10193;48.884;9.182;2024-02-28T13:10:31;9.52;;;8.52;;
20065;SDS011;10193;48.884;9.182;2024-02-28T13:13:01;10.20;;;9.00;;
20065;SDS011;10193;48.884;9.182;2024-02-28T13:15:28;9.63;;;8.63;;
20065;SDS011;10193;48.884;9.182;2024-02-28T13:17:56;10.15;;;9.05;;
20065;SDS011;10193;48.884;9.182;2024-02-28T13:20:22;9.75;;;8.68;;
20065;SDS011;10193;48.884;9.182;2024-02-28T13:22:51;11.05;;;9.30;;
20065;SDS011;10193;48.884;9.182;2024-02-28T13:25:25;10.43;;;9.32;;
20065;SDS011;10193;48.884;9.182;2024-02-28T13:27:54;9.50;;;8.38;;
20065;SDS011;10193;48.884;9.182;2024-02-28T13:30:24;9.70;;;8.20;;
20065;SDS011;10193;48.884;9.182;2024-02-28T13:32:57;9.57;;;8.57;;
20065;SDS011;10193;48.884;9.182;2024-02-28T13:35:27;10.38;;;8.85;;
20065;SDS011;10193;48.884;9.182;2024-02-28T13:37:57;10.02;;;8.43;;
20065;SDS011;10193;48.884;9.182;2024-02-28T13:40:29;10.95;;;8.40;;
20065;SDS011;10193;48.884;9.182;2024-02-28T13:42:56;9.38;;;8.07;;
20065;SDS011;10193;48.884;9.182;2024-02-28T13:45:24;9.38;;;8.10;;
20065;SDS011;10193;48.884;9.182;2024-02-28T13:47:53;9.52;;;8.52;;
20065;SDS011;10193;48.884;9.182;2024-02-28T13:50:22;10.45;;;8.52;;
20065;SDS011;10193;48.884;9.182;2024-02-28T13:52:58;9.15;;;8.25;;
20065;SDS011;10193;48.884;9.182;2024-02-28T13:55:25;9.70;;;8.48;;
20065;SDS011;10193;48.884;9.182;2024-02-28T13:57:58;8.63;;;7.70;;
20065;SDS011;10193;48.884;9.182;2024-02-28T14:00:27;9.05;;;8.10;;
20065;SDS011;10193;48.884;9.182;2024-02-28T14:03:01;9.07;;;7.60;;
20065;SDS011;10193;48.884;9.182;2024-02-28T14:05:33;9.57;;;8.07;;
20065;SDS011;10193;48.884;9.182;2024-02-28T14:08:02;8.77;;;7.78;;
20065;SDS011;10193;48.884;9.182;2024-02-28T14:10:32;9.23;;;8.20;;
20065;SDS011;10193;48.884;9.182;2024-02-28T14:12:59;8.05;;;7.10;;
20065;SDS011;10193;48.884;9.182;2024-02-28T14:15:28;8.73;;;7.57;;
20065;SDS011;10193;48.884;9.182;2024-02-28T14:18:03;8.32;;;7.50;;
20065;SDS011;10193;48.884;9.182;2024-02-28T14:20:30;7.60;;;6.85;;
20065;SDS011;10193;48.884;9.182;2024-02-28T14:22:58;7.38;;;6.55;;
20065;SDS011;10193;48.884;9.182;2024-02-28T14:25:25;7.30;;;6.57;;
20065;SDS011;10193;48.884;9.182;2024-02-28T14:27:58;7.43;;;6.43;;
20065;SDS011;10193;48.884;9.182;2024-02-28T14:30:29;8.23;;;6.97;;
20065;SDS011;10193;48.884;9.182;2024-02-28T14:32:59;8.40;;;6.88;;
20065;SDS011;10193;48.884;9.182;2024-02-28T14:35:27;8.00;;;7.20;;
20065;SDS011;10193;48.884;9.182;2024-02-28T14:37:58;8.40;;;7.32;;
20065;SDS011;10193;48.884;9.182;2024-02-28T14:40:26;8.27;;;7.30;;
20065;SDS011;10193;48.884;9.182;2024-02-28T14:42:57;8.00;;;7.20;;